Terminal Aerodrome Forecast
Issued by NWS

Home | Current Version | Previous Version | Text Only | Print | Product List | Glossary On
Versions: 1 2 3 4 5 6 7 8 9 10 11 12
000
FTUS45 KREV 161700
TAFMMH
TAF
KMMH 161720Z 1618/1718 13006KT P6SM FEW180
     FM161900 28009KT P6SM FEW180
     FM170200 VRB03KT P6SM SKC=

USA.gov is the U.S. government's official web portal to all federal, state and local government web resources and services.